CST,Max TemperatureF,Mean TemperatureF,Min TemperatureF,Max Dew PointF,MeanDew PointF,Min DewpointF,Max Humidity, Mean Humidity, Min Humidity, Max Sea Level PressureIn, Mean Sea Level PressureIn, Min Sea Level PressureIn, Max VisibilityMiles, Mean VisibilityMiles, Min VisibilityMiles, Max Wind SpeedMPH, Mean Wind SpeedMPH, Max Gust SpeedMPH,PrecipitationIn, CloudCover, Events, WindDirDegrees
2012-12-1,35,32,28,34,32,27,100,93,88,29.93,29.78,29.69,6,3,0,10,6,22,0.08,8,Fog,196
2012-12-2,36,33,30,36,32,29,100,97,92,29.92,29.78,29.55,8,4,1,10,6,17,0.00,7,,161
2012-12-3,43,30,16,39,30,7,96,82,68,29.82,29.50,29.36,10,8,4,15,8,28,0.04,6,Rain-Snow,227
2012-12-4,19,14,9,12,8,3,92,79,68,30.45,30.22,29.86,10,9,2,14,9,25,0.00,7,Snow,289
2012-12-5,33,20,8,22,13,5,92,71,51,30.43,30.08,29.66,10,10,10,15,6,29,0.00,2,,155
2012-12-6,35,27,19,31,20,13,92,78,67,29.98,29.78,29.56,10,10,6,15,10,23,0.00,7,,276
2012-12-7,19,11,1,14,6,-3,91,77,64,30.17,30.09,29.99,10,8,1,13,7,,0.00,5,Snow,328
2012-12-8,17,9,1,14,10,-2,93,87,83,30.21,30.07,29.98,10,3,0,9,5,,0.00,7,Fog-Snow,76
2012-12-9,14,6,-2,10,1,-6,88,83,70,30.36,30.26,30.13,10,8,2,14,9,,0.00,4,Snow,354
2012-12-10,10,2,-7,5,-3,-9,96,82,70,30.17,29.96,29.77,10,10,4,7,3,,0.00,5,Snow,165
2012-12-11,21,6,-9,7,0,-16,88,63,37,30.01,29.81,29.66,10,6,2,15,5,20,0.00,6,Snow,292
2012-12-12,30,12,-5,13,4,-12,84,53,37,30.02,29.90,29.78,10,8,1,18,8,22,0.00,8,Snow,96
2012-12-13,23,18,12,12,8,5,85,70,51,30.15,30.09,29.97,10,9,2,10,5,,0.00,8,Snow,343
2012-12-14,32,24,16,21,18,13,100,85,61,30.14,30.01,29.85,10,9,2,9,5,17,0.03,4,,147
2012-12-15,33,26,18,30,25,16,100,94,87,29.84,29.69,29.60,7,4,2,16,6,24,0.00,7,,12
2012-12-16,21,18,15,19,17,13,96,91,85,29.85,29.77,29.64,10,8,2,17,12,22,0.00,8,Snow,329
2012-12-17,19,16,14,18,13,12,96,92,88,29.82,29.77,29.72,10,10,5,7,4,,0.00,8,,265
2012-12-18,21,18,14,20,16,12,100,92,86,29.79,29.71,29.65,10,6,2,7,4,,0.00,8,Snow,113
2012-12-19,26,22,17,24,19,15,100,91,85,30.06,29.87,29.72,10,8,2,12,4,,0.00,8,Snow,224
2012-12-20,18,9,0,16,4,-3,93,85,73,30.25,30.12,29.99,10,9,2,14,10,,0.00,6,Snow,332
2012-12-21,10,6,3,7,3,1,96,89,80,30.35,30.25,30.14,10,9,4,12,5,,0.00,4,Snow,248
2012-12-22,10,6,1,7,5,-1,91,84,79,30.23,30.12,30.02,10,7,2,18,8,,0.00,6,Snow,324
2012-12-23,7,-1,-9,4,-8,-13,92,83,75,30.29,30.25,30.17,10,9,3,10,7,,0.00,2,Snow,318
2012-12-24,-4,-8,-11,-11,-13,-17,86,79,71,30.44,30.29,30.13,10,9,6,13,7,,0.00,5,,310
2012-12-25,-2,-8,-15,-10,-15,-19,84,79,69,30.56,30.49,30.33,10,10,9,5,1,,0.00,3,,283
2012-12-26,6,-4,-14,-2,-9,-19,86,80,69,30.47,30.39,30.28,10,8,2,5,1,,0.00,4,Snow,190
2012-12-27,10,0,-9,6,-2,-15,88,84,76,30.38,30.31,30.18,10,9,3,7,2,,0.00,7,Snow,108
2012-12-28,19,10,1,14,8,0,92,88,81,30.22,30.09,29.96,10,6,1,7,2,,0.00,8,Snow,186
2012-12-29,12,4,-5,10,5,-8,100,86,77,30.12,30.02,29.93,10,5,2,7,4,,0.00,6,Snow,249
2012-12-30,21,7,-7,16,8,-10,93,86,76,30.12,29.93,29.79,10,6,0,21,7,25,0.00,7,Fog-Snow,230
2012-12-31,0,-6,-13,-6,-12,-18,87,80,69,30.32,30.26,30.10,10,10,10,10,7,,0.00,0,,305